| time (UTC) | temp F | wind direction | speed MPH | gust MPH | rain 1hr in | rain 24hr in | rain mn in | humidity % | barometer mb |
| 20260510160504 | 70 | 176 | 0.0 | 9.0 | 0.00 | 0.15 | 0.00 | 68 | 1012.6 |
| 20260510160028 | 69 | 110 | 2.0 | 9.0 | 0.00 | 0.15 | 0.00 | 69 | 1012.7 |
| 20260510155504 | 68 | 117 | 0.0 | 5.0 | 0.00 | 0.15 | 0.00 | 73 | 1012.6 |
| 20260510155007 | 67 | 172 | 1.0 | 13.0 | 0.00 | 0.15 | 0.00 | 72 | 1012.5 |
| 20260510154508 | 66 | 134 | 3.0 | 13.0 | 0.00 | 0.15 | 0.00 | 73 | 1012.8 |
| 20260510154005 | 66 | 184 | 0.0 | 1.0 | 0.00 | 0.15 | 0.00 | 76 | 1012.9 |
| 20260510153503 | 65 | 175 | 0.0 | 4.0 | 0.00 | 0.16 | 0.00 | 75 | 1012.9 |
| 20260510153013 | 66 | 181 | 1.0 | 4.0 | 0.00 | 0.16 | 0.00 | 72 | 1013.0 |
| 20260510152503 | 66 | 220 | 0.0 | 6.0 | 0.00 | 0.16 | 0.00 | 73 | 1013.0 |
| 20260510152006 | 66 | 162 | 1.0 | 6.0 | 0.00 | 0.16 | 0.00 | 74 | 1012.9 |
| 20260510151524 | 66 | 172 | 0.0 | 4.0 | 0.00 | 0.17 | 0.00 | 75 | 1012.9 |
| 20260510151004 | 65 | 260 | 0.0 | 4.0 | 0.00 | 0.17 | 0.00 | 74 | 1012.9 |
| 20260510150507 | 64 | 143 | 0.0 | 4.0 | 0.00 | 0.17 | 0.00 | 77 | 1012.9 |
| 20260510150021 | 64 | 197 | 0.0 | 5.0 | 0.00 | 0.17 | 0.00 | 78 | 1013.0 |
| 20260510145510 | 63 | 243 | 0.0 | 5.0 | 0.00 | 0.17 | 0.00 | 83 | 1013.0 |
| 20260510145006 | 62 | 246 | 1.0 | 5.0 | 0.00 | 0.17 | 0.00 | 81 | 1013.0 |
| 20260510144522 | 62 | 178 | 0.0 | 5.0 | 0.00 | 0.17 | 0.00 | 80 | 1013.1 |
| 20260510144008 | 61 | 215 | 0.0 | 5.0 | 0.00 | 0.17 | 0.00 | 82 | 1013.1 |
| 20260510143511 | 61 | 127 | 0.0 | 5.0 | 0.00 | 0.18 | 0.00 | 83 | 1013.1 |
| 20260510143011 | 60 | 164 | 0.0 | 3.0 | 0.00 | 0.18 | 0.00 | 84 | 1013.1 |
| 20260510142504 | 60 | 131 | 0.0 | 0.0 | 0.00 | 0.18 | 0.00 | 86 | 1013.1 |
| 20260510142006 | 59 | 131 | 0.0 | 0.0 | 0.00 | 0.18 | 0.00 | 86 | 1013.1 |
| 20260510141514 | 59 | 131 | 0.0 | 0.0 | 0.00 | 0.18 | 0.00 | 86 | 1013.1 |
| 20260510141005 | 59 | 131 | 0.0 | 3.0 | 0.00 | 0.19 | 0.00 | 87 | 1013.0 |
| 20260510140505 | 59 | 131 | 0.0 | 3.0 | 0.00 | 0.19 | 0.00 | 86 | 1013.1 |
| 20260510140018 | 58 | 179 | 0.0 | 0.0 | 0.00 | 0.19 | 0.00 | 88 | 1013.1 |
| 20260510135507 | 58 | 187 | 0.0 | 2.0 | 0.00 | 0.19 | 0.00 | 87 | 1013.1 |
| 20260510135008 | 58 | 187 | 0.0 | 4.0 | 0.00 | 0.20 | 0.00 | 88 | 1013.1 |
| 20260510134525 | 57 | 155 | 0.0 | 4.0 | 0.00 | 0.20 | 0.00 | 88 | 1013.0 |
| 20260510134007 | 57 | 165 | 0.0 | 4.0 | 0.00 | 0.20 | 0.00 | 90 | 1013.0 |
| 20260510133506 | 56 | 159 | 0.0 | 4.0 | 0.00 | 0.20 | 0.00 | 91 | 1013.0 |
| 20260510133023 | 56 | 180 | 0.0 | 5.0 | 0.00 | 0.21 | 0.00 | 91 | 1013.0 |
| 20260510132508 | 56 | 171 | 0.0 | 5.0 | 0.00 | 0.21 | 0.00 | 91 | 1013.0 |
| 20260510132011 | 55 | 143 | 0.0 | 2.0 | 0.00 | 0.21 | 0.00 | 92 | 1013.0 |
| 20260510131520 | 55 | 154 | 0.0 | 2.0 | 0.00 | 0.21 | 0.00 | 92 | 1013.1 |
| 20260510131004 | 55 | 187 | 0.0 | 2.0 | 0.00 | 0.21 | 0.00 | 92 | 1013.1 |
| 20260510130505 | 55 | 184 | 0.0 | 4.0 | 0.00 | 0.21 | 0.00 | 93 | 1013.1 |
| 20260510130017 | 55 | 172 | 0.0 | 4.0 | 0.00 | 0.21 | 0.00 | 93 | 1013.0 |
| 20260510125508 | 55 | 154 | 0.0 | 2.0 | 0.00 | 0.21 | 0.00 | 94 | 1013.1 |
| 20260510125006 | 54 | 126 | 0.0 | 3.0 | 0.00 | 0.21 | 0.00 | 94 | 1013.1 |
| 20260510124519 | 54 | 184 | 0.0 | 3.0 | 0.00 | 0.21 | 0.00 | 95 | 1013.1 |
| 20260510124008 | 54 | 144 | 0.0 | 3.0 | 0.00 | 0.21 | 0.00 | 95 | 1013.1 |
| 20260510123510 | 54 | 217 | 0.0 | 3.0 | 0.00 | 0.21 | 0.00 | 95 | 1013.1 |
| 20260510123026 | 54 | 131 | 0.0 | 0.0 | 0.00 | 0.21 | 0.00 | 96 | 1012.9 |
| 20260510122506 | 54 | 188 | 0.0 | 0.0 | 0.00 | 0.21 | 0.00 | 96 | 1013.0 |
| 20260510122010 | 54 | 197 | 0.0 | 0.0 | 0.00 | 0.21 | 0.00 | 96 | 1013.1 |
| 20260510121523 | 53 | 197 | 0.0 | 0.0 | 0.00 | 0.21 | 0.00 | 97 | 1013.0 |
| 20260510121006 | 53 | 160 | 0.0 | 0.0 | 0.00 | 0.21 | 0.00 | 97 | 1013.0 |
| 20260510120509 | 53 | 160 | 0.0 | 0.0 | 0.00 | 0.21 | 0.00 | 97 | 1013.0 |
| 20260510120023 | 53 | 155 | 0.0 | 1.0 | 0.00 | 0.21 | 0.00 | 97 | 1012.9 |
| 20260510115503 | 53 | 155 | 0.0 | 2.0 | 0.00 | 0.21 | 0.00 | 97 | 1012.9 |
| 20260510115010 | 52 | 186 | 0.0 | 2.0 | 0.00 | 0.21 | 0.00 | 97 | 1012.9 |
| 20260510114520 | 52 | 191 | 0.0 | 2.0 | 0.00 | 0.21 | 0.00 | 97 | 1012.8 |
| 20260510114007 | 52 | 195 | 0.0 | 2.0 | 0.00 | 0.21 | 0.00 | 97 | 1012.9 |
| 20260510113509 | 52 | 189 | 0.0 | 0.0 | 0.00 | 0.21 | 0.00 | 97 | 1012.9 |
| 20260510113032 | 51 | 189 | 0.0 | 0.0 | 0.00 | 0.21 | 0.00 | 97 | 1012.8 |
| 20260510112508 | 51 | 189 | 0.0 | 0.0 | 0.00 | 0.21 | 0.00 | 97 | 1012.9 |
| 20260510112011 | 51 | 189 | 0.0 | 0.0 | 0.00 | 0.21 | 0.00 | 97 | 1012.9 |
| 20260510111531 | 51 | 189 | 0.0 | 0.0 | 0.00 | 0.21 | 0.00 | 97 | 1013.0 |
| 20260510111011 | 51 | 189 | 0.0 | 0.0 | 0.00 | 0.21 | 0.00 | 97 | 1013.0 |
| 20260510110508 | 51 | 189 | 0.0 | 0.0 | 0.00 | 0.21 | 0.00 | 97 | 1012.7 |
| 20260510110034 | 51 | 187 | 0.0 | 0.0 | 0.00 | 0.21 | 0.00 | 97 | 1012.5 |
| 20260510105507 | 51 | 188 | 0.0 | 0.0 | 0.00 | 0.21 | 0.00 | 97 | 1012.5 |
| 20260510105009 | 51 | 147 | 0.0 | 0.0 | 0.00 | 0.21 | 0.00 | 97 | 1012.4 |
| 20260510104528 | 51 | 148 | 0.0 | 0.0 | 0.00 | 0.21 | 0.00 | 97 | 1012.5 |
| 20260510104010 | 51 | 148 | 0.0 | 3.0 | 0.00 | 0.21 | 0.00 | 97 | 1012.4 |
| 20260510103506 | 51 | 124 | 0.0 | 3.0 | 0.00 | 0.21 | 0.00 | 97 | 1012.4 |
| 20260510103022 | 50 | 188 | 0.0 | 4.0 | 0.00 | 0.21 | 0.00 | 97 | 1012.2 |
| 20260510102507 | 50 | 185 | 0.0 | 4.0 | 0.00 | 0.21 | 0.00 | 96 | 1011.9 |
| 20260510102007 | 50 | 194 | 0.0 | 0.0 | 0.00 | 0.21 | 0.00 | 97 | 1011.9 |
| 20260510101523 | 50 | 194 | 0.0 | 0.0 | 0.00 | 0.21 | 0.00 | 97 | 1012.1 |
| 20260510101008 | 50 | 194 | 0.0 | 0.0 | 0.00 | 0.21 | 0.00 | 96 | 1012.0 |
| 20260510100511 | 50 | 194 | 0.0 | 0.0 | 0.00 | 0.21 | 0.00 | 97 | 1012.1 |
| 20260510100033 | 50 | 194 | 0.0 | 1.0 | 0.00 | 0.21 | 0.00 | 97 | 1012.2 |
| 20260510095508 | 50 | 194 | 0.0 | 1.0 | 0.00 | 0.21 | 0.00 | 97 | 1012.1 |
| 20260510095008 | 50 | 193 | 0.0 | 0.0 | 0.00 | 0.21 | 0.00 | 97 | 1012.1 |
| 20260510094532 | 50 | 162 | 0.0 | 2.0 | 0.00 | 0.21 | 0.00 | 96 | 1012.0 |
| 20260510094009 | 50 | 134 | 0.0 | 2.0 | 0.00 | 0.21 | 0.00 | 96 | 1012.0 |
| 20260510093512 | 49 | 38 | 0.0 | 0.0 | 0.00 | 0.21 | 0.00 | 96 | 1012.0 |
| 20260510093027 | 49 | 37 | 0.0 | 0.0 | 0.00 | 0.21 | 0.00 | 96 | 1012.1 |
| 20260510092508 | 49 | 37 | 0.0 | 0.0 | 0.00 | 0.21 | 0.00 | 96 | 1012.0 |
| 20260510092012 | 49 | 37 | 0.0 | 0.0 | 0.00 | 0.21 | 0.00 | 96 | 1012.1 |
| 20260510091523 | 49 | 37 | 0.0 | 0.0 | 0.00 | 0.21 | 0.00 | 96 | 1012.0 |
| 20260510091006 | 49 | 37 | 0.0 | 0.0 | 0.00 | 0.21 | 0.00 | 96 | 1011.9 |
| 20260510090509 | 49 | 37 | 0.0 | 0.0 | 0.00 | 0.21 | 0.00 | 96 | 1012.0 |
| 20260510090004 | 49 | 37 | 0.0 | 0.0 | 0.00 | 0.21 | 0.00 | 96 | 1012.0 |
| 20260510085504 | 49 | 37 | 0.0 | 0.0 | 0.00 | 0.21 | 0.00 | 97 | 1012.0 |
| 20260510085003 | 49 | 37 | 0.0 | 0.0 | 0.00 | 0.21 | 0.00 | 96 | 1012.1 |
| 20260510084507 | 49 | 37 | 0.0 | 0.0 | 0.00 | 0.21 | 0.00 | 96 | 1012.2 |
| 20260510084004 | 49 | 37 | 0.0 | 0.0 | 0.00 | 0.21 | 0.00 | 96 | 1012.2 |
| 20260510083504 | 49 | 37 | 0.0 | 0.0 | 0.00 | 0.21 | 0.00 | 96 | 1012.1 |
| 20260510083017 | 49 | 37 | 0.0 | 0.0 | 0.00 | 0.21 | 0.00 | 96 | 1012.1 |
| 20260510082504 | 49 | 37 | 0.0 | 0.0 | 0.00 | 0.21 | 0.00 | 96 | 1012.1 |
| 20260510082008 | 49 | 37 | 0.0 | 0.0 | 0.00 | 0.21 | 0.00 | 96 | 1012.1 |
| 20260510081517 | 49 | 27 | 0.0 | 0.0 | 0.00 | 0.21 | 0.00 | 96 | 1012.2 |
| 20260510081010 | 48 | 323 | 0.0 | 0.0 | 0.00 | 0.21 | 0.00 | 96 | 1012.1 |
| 20260510080508 | 48 | 323 | 0.0 | 0.0 | 0.00 | 0.21 | 0.00 | 96 | 1012.1 |
| 20260510080022 | 48 | 323 | 0.0 | 0.0 | 0.00 | 0.21 | 0.00 | 96 | 1012.1 |
| 20260510075509 | 48 | 323 | 0.0 | 0.0 | 0.00 | 0.21 | 0.00 | 96 | 1012.0 |
| 20260510075009 | 48 | 323 | 0.0 | 0.0 | 0.00 | 0.21 | 0.00 | 96 | 1012.1 |
| 20260510074535 | 48 | 323 | 0.0 | 0.0 | 0.00 | 0.21 | 0.00 | 96 | 1012.2 |
| 20260510074006 | 48 | 323 | 0.0 | 0.0 | 0.00 | 0.21 | 0.00 | 96 | 1012.2 |
| 20260510073505 | 48 | 323 | 0.0 | 0.0 | 0.00 | 0.21 | 0.00 | 96 | 1012.1 |
| 20260510073010 | 47 | 323 | 0.0 | 0.0 | 0.00 | 0.21 | 0.00 | 96 | 1011.9 |
| 20260510072504 | 47 | 323 | 0.0 | 0.0 | 0.00 | 0.21 | 0.00 | 96 | 1011.8 |
| 20260510072005 | 47 | 323 | 0.0 | 0.0 | 0.00 | 0.21 | 0.00 | 95 | 1011.7 |
| 20260510071519 | 47 | 323 | 0.0 | 0.0 | 0.00 | 0.21 | 0.00 | 95 | 1011.6 |
| 20260510071004 | 48 | 323 | 0.0 | 0.0 | 0.00 | 0.21 | 0.00 | 95 | 1011.5 |
| 20260510070507 | 48 | 323 | 0.0 | 0.0 | 0.00 | 0.21 | 0.00 | 95 | 1011.6 |
| 20260510070020 | 48 | 323 | 0.0 | 0.0 | 0.00 | 0.21 | 0.00 | 95 | 1011.5 |
| 20260510065507 | 48 | 323 | 0.0 | 0.0 | 0.00 | 0.21 | 0.00 | 95 | 1011.7 |
| 20260510065007 | 48 | 323 | 0.0 | 0.0 | 0.00 | 0.21 | 0.00 | 95 | 1011.7 |
| 20260510064521 | 48 | 323 | 0.0 | 0.0 | 0.00 | 0.21 | 0.00 | 95 | 1011.7 |
| 20260510064007 | 48 | 323 | 0.0 | 0.0 | 0.00 | 0.21 | 0.00 | 95 | 1011.7 |
| 20260510063509 | 49 | 323 | 0.0 | 0.0 | 0.00 | 0.21 | 0.00 | 96 | 1011.8 |
| 20260510063025 | 49 | 323 | 0.0 | 0.0 | 0.00 | 0.21 | 0.00 | 96 | 1011.7 |
| 20260510062510 | 49 | 323 | 0.0 | 0.0 | 0.00 | 0.21 | 0.00 | 96 | 1011.7 |
| 20260510062004 | 49 | 323 | 0.0 | 0.0 | 0.00 | 0.21 | 0.00 | 96 | 1011.7 |
| 20260510061515 | 49 | 323 | 0.0 | 1.0 | 0.00 | 0.21 | 0.00 | 96 | 1011.9 |
| 20260510061004 | 49 | 323 | 0.0 | 1.0 | 0.00 | 0.21 | 0.00 | 96 | 1012.0 |
| 20260510060506 | 49 | 324 | 0.0 | 0.0 | 0.00 | 0.21 | 0.00 | 96 | 1011.9 |
| 20260510060017 | 49 | 324 | 0.0 | 0.0 | 0.00 | 0.21 | 0.00 | 96 | 1011.8 |
| 20260510055510 | 49 | 324 | 0.0 | 0.0 | 0.00 | 0.21 | 0.00 | 96 | 1011.9 |
| 20260510055007 | 49 | 324 | 0.0 | 0.0 | 0.00 | 0.21 | 0.00 | 96 | 1011.9 |
| 20260510054520 | 49 | 324 | 0.0 | 0.0 | 0.00 | 0.21 | 0.00 | 96 | 1011.9 |
| 20260510054008 | 49 | 324 | 0.0 | 0.0 | 0.00 | 0.21 | 0.00 | 96 | 1012.0 |
| 20260510053510 | 49 | 324 | 0.0 | 0.0 | 0.00 | 0.21 | 0.00 | 96 | 1012.1 |
| 20260510053024 | 49 | 324 | 0.0 | 0.0 | 0.00 | 0.21 | 0.00 | 96 | 1012.2 |
| 20260510052510 | 49 | 324 | 0.0 | 0.0 | 0.00 | 0.21 | 0.00 | 96 | 1012.2 |
| 20260510052007 | 49 | 324 | 0.0 | 0.0 | 0.00 | 0.21 | 0.00 | 96 | 1012.4 |
| 20260510051528 | 49 | 324 | 0.0 | 0.0 | 0.00 | 0.21 | 0.00 | 96 | 1012.5 |
| 20260510051009 | 49 | 324 | 0.0 | 0.0 | 0.00 | 0.21 | 0.00 | 96 | 1012.4 |
| 20260510050508 | 49 | 324 | 0.0 | 0.0 | 0.00 | 0.21 | 0.00 | 96 | 1012.3 |
| 20260510050016 | 49 | 324 | 0.0 | 0.0 | 0.00 | 0.21 | 0.00 | 96 | 1012.4 |
| 20260510045507 | 49 | 324 | 0.0 | 0.0 | 0.00 | 0.21 | 0.00 | 96 | 1012.3 |
| 20260510045007 | 49 | 324 | 0.0 | 0.0 | 0.00 | 0.21 | 0.00 | 96 | 1012.4 |
| 20260510044518 | 49 | 324 | 0.0 | 0.0 | 0.00 | 0.21 | 0.00 | 96 | 1012.5 |
| 20260510044006 | 49 | 324 | 0.0 | 0.0 | 0.00 | 0.21 | 0.00 | 96 | 1012.5 |
| 20260510043507 | 49 | 324 | 0.0 | 0.0 | 0.00 | 0.21 | 0.00 | 96 | 1012.5 |
| 20260510043022 | 49 | 324 | 0.0 | 0.0 | 0.00 | 0.21 | 0.00 | 96 | 1012.5 |
| 20260510042510 | 49 | 324 | 0.0 | 0.0 | 0.00 | 0.21 | 0.00 | 96 | 1012.4 |
| 20260510042011 | 49 | 324 | 0.0 | 0.0 | 0.00 | 0.21 | 0.00 | 96 | 1012.4 |
| 20260510041532 | 49 | 324 | 0.0 | 0.0 | 0.00 | 0.21 | 0.00 | 96 | 1012.4 |
| 20260510041007 | 49 | 324 | 0.0 | 0.0 | 0.00 | 0.21 | 0.00 | 96 | 1012.5 |
| 20260510040508 | 49 | 324 | 0.0 | 0.0 | 0.00 | 0.21 | 0.00 | 96 | 1012.4 |
| 20260510040028 | 49 | 324 | 0.0 | 0.0 | 0.00 | 0.21 | 0.00 | 96 | 1012.4 |
| 20260510035510 | 49 | 324 | 0.0 | 0.0 | 0.00 | 0.21 | 0.21 | 96 | 1012.4 |
| 20260510035011 | 49 | 324 | 0.0 | 0.0 | 0.00 | 0.21 | 0.21 | 96 | 1012.7 |
| 20260510034516 | 49 | 324 | 0.0 | 0.0 | 0.00 | 0.21 | 0.21 | 96 | 1012.8 |
| 20260510034006 | 49 | 324 | 0.0 | 0.0 | 0.00 | 0.21 | 0.21 | 96 | 1012.7 |
| 20260510033507 | 49 | 324 | 0.0 | 0.0 | 0.00 | 0.21 | 0.21 | 96 | 1012.8 |
| 20260510033027 | 49 | 324 | 0.0 | 0.0 | 0.00 | 0.21 | 0.21 | 96 | 1012.7 |
| 20260510032507 | 49 | 324 | 0.0 | 0.0 | 0.00 | 0.21 | 0.21 | 96 | 1012.6 |
| 20260510032010 | 49 | 324 | 0.0 | 0.0 | 0.00 | 0.21 | 0.21 | 96 | 1012.8 |
| 20260510031529 | 49 | 324 | 0.0 | 0.0 | 0.00 | 0.21 | 0.21 | 96 | 1012.7 |
| 20260510031011 | 49 | 324 | 0.0 | 0.0 | 0.00 | 0.21 | 0.21 | 96 | 1012.9 |
| 20260510030508 | 49 | 324 | 0.0 | 0.0 | 0.00 | 0.21 | 0.21 | 96 | 1012.9 |
| 20260510025509 | 49 | 324 | 0.0 | 0.0 | 0.00 | 0.21 | 0.21 | 96 | 1013.1 |
| 20260510025007 | 49 | 324 | 0.0 | 0.0 | 0.00 | 0.21 | 0.21 | 96 | 1013.2 |
| 20260510024527 | 48 | 324 | 0.0 | 0.0 | 0.00 | 0.21 | 0.21 | 95 | 1013.2 |
| 20260510024010 | 48 | 324 | 0.0 | 0.0 | 0.00 | 0.21 | 0.21 | 96 | 1013.2 |
| 20260510023507 | 49 | 324 | 0.0 | 0.0 | 0.00 | 0.21 | 0.21 | 95 | 1013.1 |
| 20260510023003 | 48 | 324 | 0.0 | 0.0 | 0.00 | 0.21 | 0.21 | 95 | 1013.1 |
| 20260510022506 | 48 | 324 | 0.0 | 0.0 | 0.00 | 0.21 | 0.21 | 95 | 1013.1 |
| 20260510022002 | 48 | 324 | 0.0 | 0.0 | 0.00 | 0.21 | 0.21 | 96 | 1013.2 |
| 20260510021504 | 48 | 324 | 0.0 | 0.0 | 0.00 | 0.21 | 0.21 | 96 | 1013.2 |
| 20260510021002 | 48 | 324 | 0.0 | 0.0 | 0.00 | 0.21 | 0.21 | 95 | 1013.2 |
| 20260510020504 | 48 | 324 | 0.0 | 0.0 | 0.00 | 0.21 | 0.21 | 95 | 1013.3 |
| 20260510020007 | 48 | 324 | 0.0 | 0.0 | 0.00 | 0.21 | 0.21 | 95 | 1013.3 |
| 20260510015504 | 48 | 324 | 0.0 | 0.0 | 0.01 | 0.21 | 0.21 | 95 | 1013.4 |
| 20260510015005 | 48 | 324 | 0.0 | 0.0 | 0.01 | 0.21 | 0.21 | 95 | 1013.4 |
| 20260510014511 | 48 | 324 | 0.0 | 0.0 | 0.01 | 0.21 | 0.21 | 95 | 1013.3 |
| 20260510014003 | 48 | 324 | 0.0 | 0.0 | 0.01 | 0.21 | 0.21 | 95 | 1013.2 |
| 20260510013502 | 48 | 324 | 0.0 | 0.0 | 0.01 | 0.21 | 0.21 | 95 | 1013.2 |
| 20260510013014 | 48 | 324 | 0.0 | 0.0 | 0.01 | 0.21 | 0.21 | 95 | 1013.2 |
| 20260510012506 | 48 | 324 | 0.0 | 0.0 | 0.01 | 0.21 | 0.21 | 95 | 1013.2 |
| 20260510012004 | 48 | 324 | 0.0 | 0.0 | 0.01 | 0.21 | 0.21 | 95 | 1013.2 |
| 20260510011503 | 48 | 324 | 0.0 | 0.0 | 0.01 | 0.21 | 0.21 | 95 | 1013.2 |
| 20260510011002 | 48 | 324 | 0.0 | 0.0 | 0.01 | 0.21 | 0.21 | 95 | 1013.2 |
| 20260510010503 | 48 | 324 | 0.0 | 1.0 | 0.01 | 0.21 | 0.21 | 95 | 1013.3 |
| 20260510010003 | 48 | 324 | 0.0 | 1.0 | 0.01 | 0.21 | 0.21 | 95 | 1013.3 |
| 20260510005503 | 48 | 213 | 0.0 | 0.0 | 0.00 | 0.20 | 0.20 | 95 | 1013.3 |
| 20260510005005 | 48 | 213 | 0.0 | 0.0 | 0.00 | 0.20 | 0.20 | 95 | 1013.1 |
| 20260510004505 | 48 | 199 | 0.0 | 0.0 | 0.00 | 0.20 | 0.20 | 95 | 1013.0 |
| 20260510004006 | 48 | 199 | 0.0 | 0.0 | 0.00 | 0.20 | 0.20 | 95 | 1013.0 |
| 20260510003505 | 48 | 199 | 0.0 | 0.0 | 0.00 | 0.20 | 0.20 | 95 | 1012.9 |
| 20260510003012 | 48 | 199 | 0.0 | 0.0 | 0.00 | 0.20 | 0.20 | 95 | 1013.0 |
| 20260510002504 | 48 | 198 | 0.0 | 0.0 | 0.00 | 0.20 | 0.20 | 95 | 1013.1 |
| 20260510002007 | 48 | 198 | 0.0 | 0.0 | 0.00 | 0.20 | 0.20 | 95 | 1013.2 |
| 20260510001521 | 48 | 198 | 0.0 | 0.0 | 0.00 | 0.20 | 0.20 | 95 | 1013.2 |
| 20260510001004 | 48 | 198 | 0.0 | 0.0 | 0.01 | 0.20 | 0.20 | 95 | 1013.2 |
| 20260510000508 | 48 | 198 | 0.0 | 6.0 | 0.01 | 0.20 | 0.20 | 95 | 1013.3 |
| 20260510000001 | 48 | 198 | 0.0 | 6.0 | 0.01 | 0.20 | 0.20 | 95 | 1013.3 |
| 20260509235504 | 48 | 155 | 0.0 | 0.0 | 0.02 | 0.20 | 0.20 | 95 | 1013.2 |
| 20260509235003 | 48 | 153 | 0.0 | 0.0 | 0.02 | 0.20 | 0.20 | 94 | 1013.1 |
| 20260509234511 | 48 | 153 | 0.0 | 0.0 | 0.02 | 0.20 | 0.20 | 94 | 1013.1 |
| 20260509234005 | 48 | 153 | 0.0 | 0.0 | 0.03 | 0.20 | 0.20 | 94 | 1013.1 |
| 20260509233504 | 48 | 153 | 0.0 | 0.0 | 0.03 | 0.20 | 0.20 | 94 | 1013.1 |
| 20260509233007 | 48 | 153 | 0.0 | 0.0 | 0.03 | 0.20 | 0.20 | 94 | 1013.1 |
| 20260509232504 | 48 | 153 | 0.0 | 0.0 | 0.03 | 0.20 | 0.20 | 94 | 1013.0 |
| 20260509232006 | 49 | 41 | 0.0 | 0.0 | 0.04 | 0.20 | 0.20 | 94 | 1012.9 |
| 20260509231528 | 49 | 41 | 0.0 | 0.0 | 0.04 | 0.20 | 0.20 | 94 | 1012.8 |
| 20260509231003 | 49 | 41 | 0.0 | 0.0 | 0.03 | 0.19 | 0.19 | 94 | 1012.9 |
| 20260509230504 | 49 | 41 | 0.0 | 0.0 | 0.03 | 0.19 | 0.19 | 94 | 1012.9 |
| 20260509230020 | 49 | 41 | 0.0 | 0.0 | 0.03 | 0.19 | 0.19 | 94 | 1012.9 |
| 20260509225505 | 49 | 41 | 0.0 | 0.0 | 0.02 | 0.18 | 0.18 | 94 | 1012.9 |
| 20260509225009 | 49 | 41 | 0.0 | 0.0 | 0.02 | 0.18 | 0.18 | 94 | 1012.7 |
| 20260509224525 | 49 | 41 | 0.0 | 0.0 | 0.03 | 0.18 | 0.18 | 94 | 1012.8 |
| 20260509224003 | 49 | 41 | 0.0 | 0.0 | 0.02 | 0.17 | 0.17 | 94 | 1012.7 |
| 20260509223504 | 49 | 41 | 0.0 | 0.0 | 0.02 | 0.17 | 0.17 | 94 | 1012.8 |
| 20260509223009 | 49 | 41 | 0.0 | 0.0 | 0.02 | 0.17 | 0.17 | 94 | 1012.7 |
| 20260509222504 | 49 | 41 | 0.0 | 0.0 | 0.02 | 0.17 | 0.17 | 94 | 1012.8 |
| 20260509222004 | 49 | 41 | 0.0 | 0.0 | 0.01 | 0.16 | 0.16 | 94 | 1012.9 |
| 20260509221510 | 49 | 41 | 0.0 | 0.0 | 0.01 | 0.16 | 0.16 | 94 | 1012.9 |
| 20260509221005 | 49 | 41 | 0.0 | 0.0 | 0.02 | 0.16 | 0.16 | 94 | 1012.9 |
| 20260509220504 | 49 | 41 | 0.0 | 0.0 | 0.02 | 0.16 | 0.16 | 94 | 1013.0 |
| 20260509220014 | 49 | 41 | 0.0 | 2.0 | 0.03 | 0.16 | 0.16 | 94 | 1013.1 |
| 20260509215505 | 49 | 41 | 0.0 | 2.0 | 0.03 | 0.16 | 0.16 | 94 | 1013.2 |
| 20260509215005 | 49 | 62 | 0.0 | 0.0 | 0.04 | 0.16 | 0.16 | 94 | 1013.2 |
| 20260509214530 | 49 | 62 | 0.0 | 0.0 | 0.03 | 0.15 | 0.15 | 93 | 1013.3 |
| 20260509214007 | 50 | 62 | 0.0 | 0.0 | 0.03 | 0.15 | 0.15 | 93 | 1013.4 |
| 20260509213511 | 50 | 62 | 0.0 | 0.0 | 0.04 | 0.15 | 0.15 | 93 | 1013.6 |
| 20260509213027 | 50 | 63 | 0.0 | 0.0 | 0.05 | 0.15 | 0.15 | 93 | 1013.4 |
| 20260509212509 | 50 | 63 | 0.0 | 0.0 | 0.05 | 0.15 | 0.15 | 93 | 1013.6 |
| 20260509212003 | 50 | 63 | 0.0 | 0.0 | 0.05 | 0.15 | 0.15 | 93 | 1013.5 |
| 20260509211507 | 50 | 63 | 0.0 | 0.0 | 0.05 | 0.15 | 0.15 | 93 | 1013.5 |
| 20260509211005 | 50 | 63 | 0.0 | 0.0 | 0.04 | 0.14 | 0.14 | 93 | 1013.5 |
| 20260509210504 | 50 | 63 | 0.0 | 0.0 | 0.04 | 0.14 | 0.14 | 93 | 1013.5 |
| 20260509210013 | 50 | 63 | 0.0 | 0.0 | 0.03 | 0.13 | 0.13 | 93 | 1013.4 |
| 20260509205505 | 50 | 63 | 0.0 | 0.0 | 0.03 | 0.13 | 0.13 | 93 | 1013.6 |
| 20260509205005 | 50 | 63 | 0.0 | 0.0 | 0.02 | 0.12 | 0.12 | 93 | 1013.5 |
| 20260509204527 | 50 | 63 | 0.0 | 0.0 | 0.02 | 0.12 | 0.12 | 92 | 1013.3 |
| 20260509204006 | 50 | 63 | 0.0 | 0.0 | 0.02 | 0.12 | 0.12 | 92 | 1013.4 |
| 20260509203506 | 50 | 63 | 0.0 | 0.0 | 0.01 | 0.11 | 0.11 | 92 | 1013.5 |
| 20260509203024 | 50 | 63 | 0.0 | 0.0 | 0.00 | 0.10 | 0.10 | 92 | 1013.4 |
| 20260509202508 | 50 | 63 | 0.0 | 0.0 | 0.00 | 0.10 | 0.10 | 91 | 1013.3 |
| 20260509202009 | 50 | 63 | 0.0 | 0.0 | 0.00 | 0.10 | 0.10 | 91 | 1013.3 |
| 20260509201525 | 51 | 64 | 0.0 | 0.0 | 0.00 | 0.10 | 0.10 | 92 | 1013.3 |
| 20260509201006 | 51 | 64 | 0.0 | 0.0 | 0.00 | 0.10 | 0.10 | 91 | 1013.3 |
| 20260509200503 | 51 | 64 | 0.0 | 0.0 | 0.00 | 0.10 | 0.10 | 91 | 1013.4 |
| 20260509200011 | 51 | 64 | 0.0 | 0.0 | 0.00 | 0.10 | 0.10 | 91 | 1013.4 |
| 20260509195505 | 51 | 64 | 0.0 | 0.0 | 0.00 | 0.10 | 0.10 | 91 | 1013.5 |
| 20260509195006 | 51 | 64 | 0.0 | 0.0 | 0.00 | 0.10 | 0.10 | 91 | 1013.3 |
| 20260509194515 | 51 | 64 | 0.0 | 0.0 | 0.00 | 0.10 | 0.10 | 91 | 1013.4 |
| 20260509194007 | 51 | 64 | 0.0 | 0.0 | 0.00 | 0.10 | 0.10 | 91 | 1013.2 |
| 20260509193507 | 51 | 64 | 0.0 | 5.0 | 0.00 | 0.10 | 0.10 | 92 | 1013.2 |
| 20260509193025 | 51 | 360 | 0.0 | 5.0 | 0.00 | 0.10 | 0.10 | 92 | 1013.1 |
| 20260509192506 | 51 | 4 | 0.0 | 4.0 | 0.00 | 0.10 | 0.10 | 92 | 1013.0 |
| 20260509192005 | 51 | 4 | 0.0 | 3.0 | 0.00 | 0.10 | 0.10 | 92 | 1013.1 |
| 20260509191524 | 51 | 17 | 0.0 | 6.0 | 0.00 | 0.10 | 0.10 | 92 | 1013.4 |
| 20260509191010 | 50 | 359 | 0.0 | 6.0 | 0.00 | 0.10 | 0.10 | 93 | 1013.5 |
| 20260509190509 | 50 | 338 | 0.0 | 4.0 | 0.00 | 0.10 | 0.10 | 93 | 1013.4 |
| 20260509190030 | 50 | 1 | 0.0 | 7.0 | 0.01 | 0.10 | 0.10 | 93 | 1013.3 |
| 20260509185510 | 50 | 1 | 0.0 | 7.0 | 0.01 | 0.10 | 0.10 | 93 | 1013.3 |
| 20260509185009 | 50 | 11 | 0.0 | 5.0 | 0.01 | 0.10 | 0.10 | 93 | 1013.6 |
| 20260509184512 | 49 | 360 | 1.0 | 5.0 | 0.01 | 0.10 | 0.10 | 93 | 1013.8 |
| 20260509184002 | 49 | 360 | 0.0 | 5.0 | 0.01 | 0.10 | 0.10 | 93 | 1013.7 |
| 20260509183506 | 49 | 359 | 0.0 | 4.0 | 0.01 | 0.10 | 0.10 | 93 | 1013.7 |
| 20260509183016 | 49 | 11 | 0.0 | 4.0 | 0.01 | 0.10 | 0.10 | 93 | 1013.8 |
| 20260509182504 | 49 | 4 | 0.0 | 4.0 | 0.01 | 0.10 | 0.10 | 93 | 1013.9 |
| 20260509182006 | 49 | 359 | 1.0 | 4.0 | 0.01 | 0.10 | 0.10 | 93 | 1013.9 |
| 20260509181525 | 49 | 360 | 0.0 | 0.0 | 0.01 | 0.10 | 0.10 | 93 | 1014.1 |
| 20260509181007 | 49 | 360 | 0.0 | 0.0 | 0.01 | 0.10 | 0.10 | 93 | 1014.0 |
| 20260509180507 | 48 | 360 | 0.0 | 0.0 | 0.02 | 0.10 | 0.10 | 93 | 1014.1 |
| 20260509180023 | 48 | 360 | 0.0 | 4.0 | 0.01 | 0.09 | 0.09 | 93 | 1014.2 |
| 20260509175511 | 49 | 360 | 0.0 | 4.0 | 0.01 | 0.09 | 0.09 | 93 | 1014.1 |
| 20260509175007 | 48 | 349 | 0.0 | 0.0 | 0.01 | 0.09 | 0.09 | 93 | 1014.2 |
| 20260509174524 | 48 | 348 | 0.0 | 3.0 | 0.01 | 0.09 | 0.09 | 93 | 1014.2 |
| 20260509174011 | 48 | 348 | 0.0 | 3.0 | 0.02 | 0.09 | 0.09 | 93 | 1014.1 |
| 20260509173511 | 48 | 348 | 0.0 | 4.0 | 0.02 | 0.09 | 0.09 | 93 | 1014.4 |
| 20260509173010 | 48 | 349 | 0.0 | 4.0 | 0.02 | 0.09 | 0.09 | 93 | 1014.3 |
| 20260509172507 | 48 | 1 | 0.0 | 2.0 | 0.02 | 0.09 | 0.09 | 93 | 1014.2 |
| 20260509172004 | 48 | 13 | 0.0 | 0.0 | 0.03 | 0.09 | 0.09 | 93 | 1014.8 |
| 20260509171516 | 48 | 13 | 0.0 | 0.0 | 0.03 | 0.09 | 0.09 | 93 | 1015.0 |
| 20260509171002 | 48 | 13 | 0.0 | 0.0 | 0.03 | 0.09 | 0.09 | 93 | 1014.9 |
| 20260509170503 | 48 | 13 | 0.0 | 0.0 | 0.02 | 0.08 | 0.08 | 93 | 1015.0 |
| 20260509170005 | 48 | 13 | 0.0 | 0.0 | 0.02 | 0.08 | 0.08 | 93 | 1015.1 |
| 20260509165503 | 48 | 13 | 0.0 | 0.0 | 0.02 | 0.08 | 0.08 | 92 | 1014.9 |
| 20260509165003 | 48 | 13 | 0.0 | 0.0 | 0.02 | 0.08 | 0.08 | 92 | 1014.9 |
| 20260509164504 | 48 | 13 | 0.0 | 0.0 | 0.02 | 0.08 | 0.08 | 92 | 1015.0 |
| 20260509164003 | 48 | 13 | 0.0 | 0.0 | 0.01 | 0.07 | 0.07 | 92 | 1015.2 |
| 20260509163503 | 48 | 13 | 0.0 | 0.0 | 0.02 | 0.07 | 0.07 | 92 | 1015.1 |
| 20260509163018 | 48 | 13 | 0.0 | 0.0 | 0.02 | 0.07 | 0.07 | 92 | 1015.0 |
| 20260509162504 | 48 | 13 | 0.0 | 0.0 | 0.02 | 0.07 | 0.07 | 91 | 1014.9 |
| 20260509162004 | 48 | 13 | 0.0 | 4.0 | 0.01 | 0.06 | 0.06 | 91 | 1014.9 |
| 20260509161514 | 48 | 13 | 0.0 | 4.0 | 0.02 | 0.06 | 0.06 | 92 | 1014.6 |
| 20260509161004 | 48 | 15 | 0.0 | 3.0 | 0.02 | 0.06 | 0.06 | 92 | 1014.6 |